YM Initiative — A8HX4 — position and weather

sailwx.info

Track history (hours):
 
Tides and Currents Weather Stations Pressure Air Temp Water Temp Dewpoint Dewpoint Depression Visibility Wind Speed Wind Dir Waves Ship Positions

YM Initiative

Last reported at 2017-Mar-27 20:17 UTC. Time now 2017-Mar-28 10:00 UTC.
Position N 22°29' E 119°44'.

Length 173 m; draft 7.7 m.

Type: Cargo ship. MMSI: 635961368.

Date/timePositionNaut miles runAvg speedWind from/ knotsBaromVisibWave heightAir tempDewpointWater temp
2017-Mar-27 20:17N 22°29' E 119°44'1216.1
2017-Mar-27 19:33N 22°31' E 119°57'1211.6
2017-Mar-27 18:34N 22°32' E 120°09'10 9.3
2017-Mar-27 17:32N 22°33' E 120°19'0 0.0
2017-Mar-27 15:14N 22°33' E 120°19'0 0.0
2017-Mar-27 12:29N 22°33' E 120°19'0 0.5
2017-Mar-27 11:33N 22°33' E 120°19'6 6.3
2017-Mar-27 10:33N 22°31' E 120°13'1 1.2
2017-Mar-27 09:33N 22°30' E 120°11'7 7.4
2017-Mar-27 08:33N 22°38' E 120°09'7 7.0
2017-Mar-27 07:33N 22°44' E 120°06'  
2017-Mar-23 12:31N 34°44' E 128°53'9 9.3
2017-Mar-23 11:32N 34°50' E 129°02'7 6.2
2017-Mar-23 10:29N 34°53' E 129°08'1 0.7
2017-Mar-23 09:33N 34°53' E 129°08'2 1.9
2017-Mar-23 08:32N 34°55' E 129°08'9 8.9
2017-Mar-23 07:34N 35°03' E 129°07'4 1.7
2017-Mar-23 05:28N 35°06' E 129°05'0 0.0
2017-Mar-23 04:31N 35°06' E 129°05'0 0.0
2017-Mar-23 03:31N 35°06' E 129°05'0 0.0
2017-Mar-23 02:22N 35°06' E 129°05'0 0.0
2017-Mar-22 21:16N 35°06' E 129°05'0 0.0
2017-Mar-22 18:07N 35°06' E 129°05'0 0.1
2017-Mar-22 17:33N 35°06' E 129°05'8 7.8
2017-Mar-22 16:33N 35°02' E 129°13'  
2017-Mar-17 22:33N 24°18' E 118°18'1312.8
2017-Mar-17 21:34N 24°24' E 118°06'  
Track history (hours):
 
Tides and Currents Weather Stations Pressure Air Temp Water Temp Dewpoint Dewpoint Depression Visibility Wind Speed Wind Dir Waves Ship Positions

YM Initiative

Last reported at 2017-Mar-27 20:17 UTC. Time now 2017-Mar-28 10:00 UTC.
Position N 22°29' E 119°44'.

Length 173 m; draft 7.7 m.

Type: Cargo ship. MMSI: 635961368.

Date/timePositionNaut miles runAvg speedWind from/ knotsBaromVisibWave heightAir tempDewpointWater temp
2017-Mar-27 20:17N 22°29' E 119°44'1216.1
2017-Mar-27 19:33N 22°31' E 119°57'1211.6
2017-Mar-27 18:34N 22°32' E 120°09'10 9.3
2017-Mar-27 17:32N 22°33' E 120°19'0 0.0
2017-Mar-27 15:14N 22°33' E 120°19'0 0.0
2017-Mar-27 12:29N 22°33' E 120°19'0 0.5
2017-Mar-27 11:33N 22°33' E 120°19'6 6.3
2017-Mar-27 10:33N 22°31' E 120°13'1 1.2
2017-Mar-27 09:33N 22°30' E 120°11'7 7.4
2017-Mar-27 08:33N 22°38' E 120°09'7 7.0
2017-Mar-27 07:33N 22°44' E 120°06'  
2017-Mar-23 12:31N 34°44' E 128°53'9 9.3
2017-Mar-23 11:32N 34°50' E 129°02'7 6.2
2017-Mar-23 10:29N 34°53' E 129°08'1 0.7
2017-Mar-23 09:33N 34°53' E 129°08'2 1.9
2017-Mar-23 08:32N 34°55' E 129°08'9 8.9
2017-Mar-23 07:34N 35°03' E 129°07'4 1.7
2017-Mar-23 05:28N 35°06' E 129°05'0 0.0
2017-Mar-23 04:31N 35°06' E 129°05'0 0.0
2017-Mar-23 03:31N 35°06' E 129°05'0 0.0
2017-Mar-23 02:22N 35°06' E 129°05'0 0.0
2017-Mar-22 21:16N 35°06' E 129°05'0 0.0
2017-Mar-22 18:07N 35°06' E 129°05'0 0.1
2017-Mar-22 17:33N 35°06' E 129°05'8 7.8
2017-Mar-22 16:33N 35°02' E 129°13'  
2017-Mar-17 22:33N 24°18' E 118°18'1312.8
2017-Mar-17 21:34N 24°24' E 118°06'  

Dump ship's entire track history